Terminal Aerodrome Forecast
Issued by NWS Spokane, WA

Home | Current Version | Previous Version | Text Only | Print | Product List | Glossary On
Versions: 1 2 3 4 5 6 7 8 9 10 11 12 13 14 15 16 17 18 19 20 21 22 23 24 25 26
000
FTUS46 KOTX 302337
TAFGEG
TAF
KGEG 302337Z 3100/3124 21011G16KT P6SM FEW060 BKN200
     FM310100 16005KT P6SM BKN200
     FM310900 20012KT P6SM VCSH BKN100
     FM311400 22016G22KT P6SM VCSH SCT050 BKN080
     FM311800 24025G35KT P6SM VCSH SCT060 BKN100=

USA.gov is the U.S. government's official web portal to all federal, state and local government web resources and services.